Aeroporto :
LOGIN :

Iscrizione | Disclaimer

   EN    FR    IT 

 










Sommario :    VFR   VFR Marginale   IFR   IFR Intensivo   IFR Molto Intensivo
Visibilità : 
Base nubi : 
>= 8 km
>= 3000ft
5 / 8 km
1000 / 3000 ft
1500m / 5 km
500 / 1000 ft
800 / 1500m
200 / 500 ft
< 800m
< 200 ft
Simboli :   Temporali  Nebbia  Neve Forte  Precipitazioni Forti  Vento > 20 kt
SIGMETs :   Varie  Temporali  Ghiacco  Turbolenza  Onda orograficha  Ceneri Vulcaniche






- Altitudine del aeroporto : 614 ft
- Codice IATA : CRL


EBCI - Charleroi

ULTIMO METAR :
  • 152120Z 18008KT CAVOK 05/03 Q1006 NOSIG

METARs OBSOLETI :
  • 152050Z 17007KT CAVOK 06/03 Q1006 NOSIG
  • 152020Z 18006KT CAVOK 05/02 Q1006 NOSIG
  • 151950Z 19007KT CAVOK 05/02 Q1006 NOSIG
  • 151920Z 19008KT CAVOK 05/02 Q1006 NOSIG
  • 151850Z 19008KT CAVOK 05/01 Q1006 NOSIG

TAF TAF EBCI
Valido dal 15 a 18 ore il 17 a 00 ore UTC


151710Z 1518/1624 19008KT CAVOK
PROB40
TEMPO 1600/1605 BKN006
PROB40
TEMPO 1605/1608 3000 -RA -RADZ SCT004 BKN006
BECMG 1610/1612 3000 -RA -RADZ SCT004 BKN006
PROB40
TEMPO 1612/1616 1600 RA RADZ SCT002 BKN003
BECMG 1616/1618 9999 NSW SCT012 BKN020



MetMap, La meteo Aeronautica in un colpo d'occhio ! - Copyright ORBIFLY Dicembre 2007 - Disclaimer

ORBIFLY MET'MAP TEAM :

Programmazione e sviluppo : Alexandra Zaïnal
Concezione : Baudouin d'Aumeries
Aiuto per la programmazione : Marc-Olivier Méhu
Supporto tecnico e logistico : Manuel Goepfert
Aiuto per la traduzione : Arnaldo La Scala

Contatto : metmap@orbifly.com




FONTI E CREDITI :

   NOAA